Time;durP1;ratioP1;P1;durP2;ratioP2;P2;SDS_P1;SDS_P2;PMS_P1;PMS_P2;Temp;Humidity;BMP_temperature;BMP_pressure;BME280_temperature;BME280_humidity;BME280_pressure;Samples;Min_cycle;Max_cycle;Signal;HPM_P1;HPM_P2
2021/11/07 00:01:51;;;;;;;54.20;19.40;;;;;;;2.41;100.00;99905.88;5153728;27;20058;-88
2021/11/07 00:04:29;;;;;;;57.20;18.35;;;;;;;2.44;100.00;99896.75;5155345;27;20055;-87
2021/11/07 00:07:11;;;;;;;55.08;18.45;;;;;;;2.35;100.00;99863.41;5144246;27;20054;-88
2021/11/07 00:09:45;;;;;;;50.97;18.13;;;;;;;2.32;100.00;99871.69;5152719;27;20051;-87
2021/11/07 00:12:16;;;;;;;50.60;17.63;;;;;;;2.47;100.00;99861.63;5134421;27;20138;-87
2021/11/07 00:14:47;;;;;;;62.47;17.42;;;;;;;2.41;100.00;99860.25;5134759;27;20074;-87
2021/11/07 00:17:18;;;;;;;52.72;16.67;;;;;;;2.51;100.00;99897.13;5151091;27;20078;-88
2021/11/07 00:19:48;;;;;;;53.28;18.08;;;;;;;2.41;100.00;99873.66;5139352;27;20570;-88
2021/11/07 00:22:20;;;;;;;47.60;17.58;;;;;;;2.36;100.00;99857.03;5144638;27;20171;-88
2021/11/07 00:24:51;;;;;;;44.00;17.08;;;;;;;2.41;100.00;99881.72;5159202;27;20057;-88
2021/11/07 00:27:26;;;;;;;50.85;17.13;;;;;;;2.50;100.00;99901.66;5158864;27;20046;-87
2021/11/07 00:30:04;;;;;;;45.13;16.98;;;;;;;2.35;100.00;99895.59;5159482;27;20070;-87
2021/11/07 00:32:40;;;;;;;42.92;16.42;;;;;;;2.34;100.00;99901.09;5143223;27;20055;-87
2021/11/07 00:37:56;;;;;;;44.15;16.48;;;;;;;2.45;100.00;99907.38;5115337;27;20117;-88
2021/11/07 00:40:30;;;;;;;62.38;17.23;;;;;;;2.37;100.00;99890.97;5158946;27;20055;-88
2021/11/07 00:43:01;;;;;;;43.90;15.77;;;;;;;2.27;100.00;99876.50;5158378;27;20078;-87
2021/11/07 00:45:39;;;;;;;48.17;17.27;;;;;;;2.33;100.00;99851.91;5158416;27;20099;-87
2021/11/07 00:48:16;;;;;;;38.38;15.85;;;;;;;2.34;100.00;99853.63;5158913;27;20054;-87
2021/11/07 00:50:51;;;;;;;53.10;17.02;;;;;;;2.41;100.00;99854.88;5158485;27;20042;-87
2021/11/07 00:56:17;;;;;;;41.30;16.05;;;;;;;2.54;100.00;99884.31;5153619;27;20505;-88
2021/11/07 00:58:56;;;;;;;48.13;16.35;;;;;;;2.34;100.00;99858.16;5137424;27;20100;-88
2021/11/07 01:01:25;;;;;;;41.03;16.50;;;;;;;2.39;100.00;99882.78;5156895;27;20571;-87
2021/11/07 01:03:53;;;;;;;43.83;16.60;;;;;;;2.33;100.00;99854.59;5151609;27;20122;-87
2021/11/07 01:06:22;;;;;;;41.05;16.65;;;;;;;2.41;100.00;99859.38;5149116;27;20049;-88
2021/11/07 01:08:51;;;;;;;45.92;17.88;;;;;;;2.28;100.00;99827.25;5139972;27;20049;-87
2021/11/07 01:11:21;;;;;;;43.95;17.00;;;;;;;2.34;100.00;99832.16;5157182;27;20065;-87
2021/11/07 01:13:51;;;;;;;47.30;17.77;;;;;;;2.36;100.00;99854.34;5158294;27;20045;-87
2021/11/07 01:16:18;;;;;;;51.25;19.13;;;;;;;2.39;100.00;99838.03;5158412;27;20133;-87
2021/11/07 01:18:46;;;;;;;47.95;18.40;;;;;;;2.32;100.00;99820.69;5157098;27;20046;-87
2021/11/07 01:21:25;;;;;;;47.78;18.05;;;;;;;2.34;100.00;99804.47;5158000;27;20058;-87
2021/11/07 01:23:57;;;;;;;43.72;17.45;;;;;;;2.40;100.00;99810.22;5157579;27;20054;-88
2021/11/07 01:26:30;;;;;;;42.33;16.23;;;;;;;2.39;100.00;99821.06;5158256;27;20070;-87
2021/11/07 01:29:04;;;;;;;45.35;18.63;;;;;;;2.15;100.00;99805.00;5152904;27;20142;-87
2021/11/07 01:31:32;;;;;;;48.00;17.85;;;;;;;2.24;100.00;99807.00;5136873;27;20046;-87
2021/11/07 01:34:00;;;;;;;43.70;17.75;;;;;;;2.25;100.00;99808.72;5143642;27;20085;-87
2021/11/07 01:36:36;;;;;;;43.22;18.38;;;;;;;2.25;100.00;99822.13;5157936;27;20050;-88
2021/11/07 01:39:10;;;;;;;43.33;17.23;;;;;;;2.34;100.00;99820.56;5157862;27;20042;-88
2021/11/07 01:41:45;;;;;;;46.63;18.50;;;;;;;2.28;100.00;99803.09;5151977;27;20054;-87
2021/11/07 01:44:13;;;;;;;40.88;17.25;;;;;;;2.26;100.00;99791.66;5157890;27;20051;-87
2021/11/07 01:46:43;;;;;;;41.97;17.20;;;;;;;2.37;100.00;99807.78;5157028;27;20054;-87
2021/11/07 01:49:14;;;;;;;37.97;15.98;;;;;;;2.35;100.00;99788.25;5136674;27;20589;-87
2021/11/07 01:51:47;;;;;;;39.90;17.90;;;;;;;2.41;100.00;99797.66;5137897;27;20050;-88
2021/11/07 01:54:24;;;;;;;50.40;17.52;;;;;;;2.43;100.00;99804.63;5157541;27;20058;-88
2021/11/07 01:56:52;;;;;;;40.70;16.52;;;;;;;2.43;100.00;99793.88;5157104;27;20046;-88
2021/11/07 01:59:21;;;;;;;41.10;17.65;;;;;;;2.45;100.00;99774.97;5136410;27;20043;-87
2021/11/07 02:01:53;;;;;;;44.95;17.20;;;;;;;2.34;100.00;99757.03;5135993;27;20051;-87
2021/11/07 02:04:20;;;;;;;41.60;17.65;;;;;;;2.44;100.00;99768.75;5136615;27;20150;-87
2021/11/07 02:06:49;;;;;;;39.25;17.75;;;;;;;2.38;100.00;99771.03;5136085;27;20047;-87
2021/11/07 02:09:16;;;;;;;39.72;17.77;;;;;;;2.44;100.00;99781.34;5136235;27;20130;-88
2021/11/07 02:11:46;;;;;;;42.75;17.27;;;;;;;2.29;100.00;99762.75;5147621;27;20069;-87
2021/11/07 02:14:14;;;;;;;37.00;16.17;;;;;;;2.46;100.00;99774.84;5157197;27;20050;-88
2021/11/07 02:16:47;;;;;;;42.28;17.60;;;;;;;2.41;100.00;99768.13;5143753;27;20049;-86
2021/11/07 02:19:27;;;;;;;37.08;17.27;;;;;;;2.36;100.00;99764.97;5147335;27;20501;-92
2021/11/07 02:22:13;;;;;;;34.83;15.13;;;;;;;2.47;100.00;99770.38;5157411;27;20042;-91
2021/11/07 02:24:42;;;;;;;37.65;17.35;;;;;;;2.24;100.00;99759.56;5135004;27;20058;-88
2021/11/07 02:27:11;;;;;;;38.58;16.33;;;;;;;2.44;100.00;99768.75;5151312;27;20058;-88
2021/11/07 02:29:39;;;;;;;42.92;16.83;;;;;;;2.41;100.00;99752.03;5155850;27;20042;-87
2021/11/07 02:32:09;;;;;;;44.13;17.52;;;;;;;2.43;100.00;99761.69;5150678;27;20138;-88
2021/11/07 02:34:36;;;;;;;42.92;16.48;;;;;;;2.37;100.00;99739.84;5152568;27;20141;-88
2021/11/07 02:37:06;;;;;;;42.92;16.45;;;;;;;2.35;100.00;99733.72;5151268;27;20043;-87
2021/11/07 02:39:33;;;;;;;35.47;16.77;;;;;;;2.31;100.00;99727.75;5144853;27;20374;-88
2021/11/07 02:42:00;;;;;;;38.33;17.25;;;;;;;2.34;100.00;99740.91;5154819;27;20474;-87
2021/11/07 02:44:33;;;;;;;38.42;17.83;;;;;;;2.40;100.00;99753.03;5146816;27;20055;-88
2021/11/07 02:47:03;;;;;;;31.38;15.07;;;;;;;2.34;100.00;99743.59;5155114;27;20145;-88
2021/11/07 02:49:30;;;;;;;33.20;15.85;;;;;;;2.37;100.00;99758.63;5148282;27;20047;-87
2021/11/07 02:52:01;;;;;;;36.58;15.57;;;;;;;2.28;100.00;99763.72;5149262;27;20054;-87
2021/11/07 02:54:30;;;;;;;33.42;14.45;;;;;;;2.23;100.00;99732.81;5142552;27;20050;-88
2021/11/07 02:57:12;;;;;;;33.40;13.90;;;;;;;2.29;100.00;99764.59;5155998;27;20059;-88
2021/11/07 02:59:41;;;;;;;31.33;14.52;;;;;;;2.40;100.00;99769.97;5155879;27;20386;-88
2021/11/07 03:02:10;;;;;;;32.88;14.30;;;;;;;2.31;100.00;99746.53;5157071;27;20046;-88
2021/11/07 03:04:37;;;;;;;34.28;14.93;;;;;;;2.09;100.00;99750.88;5157368;27;20155;-87
2021/11/07 03:07:05;;;;;;;30.75;15.02;;;;;;;2.04;100.00;99750.34;5159013;27;20066;-87
2021/11/07 03:09:36;;;;;;;29.83;15.80;;;;;;;2.04;100.00;99768.25;5159182;27;20427;-88
2021/11/07 03:12:06;;;;;;;38.85;14.77;;;;;;;2.01;100.00;99772.03;5166419;27;20061;-87
2021/11/07 03:14:34;;;;;;;29.83;14.10;;;;;;;1.95;100.00;99761.75;5176945;27;20054;-88
2021/11/07 03:17:02;;;;;;;30.48;13.80;;;;;;;1.92;100.00;99753.94;5180055;27;20043;-88
2021/11/07 03:19:31;;;;;;;29.52;14.23;;;;;;;1.90;100.00;99770.16;5179595;27;20038;-88
2021/11/07 03:22:00;;;;;;;27.80;13.23;;;;;;;1.83;100.00;99778.78;5179516;27;20037;-87
2021/11/07 03:24:29;;;;;;;30.20;14.60;;;;;;;1.81;100.00;99770.84;5179110;27;20099;-88
2021/11/07 03:26:58;;;;;;;34.55;15.25;;;;;;;1.76;100.00;99768.50;5176700;27;20042;-87
2021/11/07 03:29:32;;;;;;;34.20;14.73;;;;;;;1.74;100.00;99759.69;5158006;27;20046;-88
2021/11/07 03:32:03;;;;;;;27.65;12.98;;;;;;;1.62;100.00;99757.94;5156345;27;20042;-87
2021/11/07 03:34:32;;;;;;;31.23;14.10;;;;;;;1.67;100.00;99781.72;5156480;27;20054;-87
2021/11/07 03:37:02;;;;;;;33.70;15.85;;;;;;;1.77;100.00;99775.56;5156243;27;20047;-88
2021/11/07 03:39:32;;;;;;;28.35;13.90;;;;;;;1.69;100.00;99766.41;5155432;27;20039;-87
2021/11/07 03:42:01;;;;;;;36.03;15.43;;;;;;;1.73;100.00;99784.81;5155577;27;20477;-87
2021/11/07 03:44:28;;;;;;;37.95;15.82;;;;;;;1.56;100.00;99763.75;5156031;27;20413;-88
2021/11/07 03:46:57;;;;;;;34.35;14.48;;;;;;;1.32;100.00;99753.00;5156260;27;20059;-87
2021/11/07 03:49:25;;;;;;;28.33;13.55;;;;;;;1.21;100.00;99748.44;5156759;27;20410;-87
2021/11/07 03:51:53;;;;;;;29.90;13.43;;;;;;;1.24;100.00;99745.53;5160192;27;20094;-88
2021/11/07 03:54:22;;;;;;;29.05;13.15;;;;;;;1.21;100.00;99732.34;5139902;27;20043;-87
2021/11/07 03:56:49;;;;;;;27.15;13.00;;;;;;;1.10;100.00;99740.28;5144907;27;20131;-87
2021/11/07 03:59:19;;;;;;;36.90;14.40;;;;;;;1.14;100.00;99731.09;5160471;27;20039;-88
2021/11/07 04:01:46;;;;;;;30.50;13.77;;;;;;;1.02;100.00;99708.72;5160539;27;20051;-88
2021/11/07 04:04:13;;;;;;;29.20;13.82;;;;;;;1.04;100.00;99717.50;5160285;27;20051;-88
2021/11/07 04:06:40;;;;;;;30.30;13.55;;;;;;;1.05;100.00;99724.56;5159904;27;20079;-88
2021/11/07 04:09:11;;;;;;;29.25;14.35;;;;;;;0.94;100.00;99711.94;5160849;27;20055;-88
2021/11/07 04:11:37;;;;;;;;;;;;;;;0.98;100.00;99710.78;5160066;27;20054;-88
2021/11/07 04:14:06;;;;;;;27.42;12.73;;;;;;;1.01;100.00;99731.97;5159480;27;19964;-88
2021/11/07 04:16:37;;;;;;;34.65;14.48;;;;;;;1.03;100.00;99727.34;5160156;27;20051;-88
2021/11/07 04:19:05;;;;;;;30.48;14.50;;;;;;;1.04;100.00;99729.06;5159748;27;20133;-88
2021/11/07 04:21:45;;;;;;;25.90;13.85;;;;;;;0.87;100.00;99721.38;5160082;27;20557;-89
2021/11/07 04:24:12;;;;;;;27.63;13.15;;;;;;;0.84;100.00;99727.81;5159861;27;20538;-89
2021/11/07 04:26:40;;;;;;;26.42;12.02;;;;;;;0.85;100.00;99739.38;5159525;27;20056;-88
2021/11/07 04:29:13;;;;;;;25.75;13.25;;;;;;;0.76;100.00;99735.53;5144926;27;20047;-88
2021/11/07 04:31:45;;;;;;;26.63;12.23;;;;;;;0.81;100.00;99733.41;5138433;27;20075;-89
2021/11/07 04:34:12;;;;;;;23.05;12.43;;;;;;;0.84;100.00;99724.28;5143202;27;20043;-89
2021/11/07 04:36:39;;;;;;;29.38;13.10;;;;;;;0.76;100.00;99715.94;5159295;27;20053;-88
2021/11/07 04:39:06;;;;;;;30.35;12.77;;;;;;;0.69;100.00;99708.34;5158493;27;20093;-88
2021/11/07 04:41:33;;;;;;;27.92;12.75;;;;;;;0.80;100.00;99720.97;5159385;27;20047;-88
2021/11/07 04:44:03;;;;;;;32.55;14.23;;;;;;;0.66;100.00;99703.22;5159391;27;20065;-88
2021/11/07 04:46:31;;;;;;;27.65;14.05;;;;;;;0.64;100.00;99709.63;5158969;27;20081;-88
2021/11/07 04:49:00;;;;;;;28.42;13.05;;;;;;;0.49;100.00;99699.03;5159021;27;20505;-88
2021/11/07 04:51:26;;;;;;;25.52;12.15;;;;;;;0.43;100.00;99685.25;5158947;27;20085;-88
2021/11/07 04:53:56;;;;;;;26.90;12.88;;;;;;;0.53;100.00;99689.00;5158886;27;20073;-88
2021/11/07 04:56:24;;;;;;;30.88;13.43;;;;;;;0.59;100.00;99690.34;5158975;27;20558;-88
2021/11/07 04:58:50;;;;;;;29.38;13.18;;;;;;;0.64;100.00;99704.28;5158682;27;20474;-88
2021/11/07 05:01:18;;;;;;;27.70;12.40;;;;;;;0.53;100.00;99689.00;5157524;27;20058;-88
2021/11/07 05:03:45;;;;;;;24.45;11.90;;;;;;;0.46;100.00;99693.91;5158104;27;20047;-87
2021/11/07 05:06:18;;;;;;;28.42;12.65;;;;;;;0.47;100.00;99681.41;5159178;27;20047;-88
2021/11/07 05:08:45;;;;;;;23.52;10.93;;;;;;;0.51;100.00;99691.78;5158653;27;20047;-88
2021/11/07 05:11:12;;;;;;;29.45;11.70;;;;;;;0.40;100.00;99670.25;5158724;27;20097;-87
2021/11/07 05:13:39;;;;;;;26.27;12.43;;;;;;;0.27;100.00;99669.41;5158202;27;20051;-87
2021/11/07 05:16:06;;;;;;;23.67;11.23;;;;;;;0.37;100.00;99691.03;5153608;27;20050;-87
2021/11/07 05:18:41;;;;;;;23.80;10.10;;;;;;;0.25;100.00;99668.66;5148577;27;20054;-87
2021/11/07 05:21:08;;;;;;;25.98;10.88;;;;;;;0.15;100.00;99658.59;5158422;27;20058;-88
2021/11/07 05:23:41;;;;;;;26.50;10.70;;;;;;;0.35;100.00;99670.59;5158016;27;20553;-88
2021/11/07 05:26:08;;;;;;;27.13;11.10;;;;;;;0.42;100.00;99675.50;5158553;27;20043;-87
2021/11/07 05:28:38;;;;;;;23.65;11.88;;;;;;;0.37;100.00;99669.63;5158201;27;20066;-88
2021/11/07 05:31:05;;;;;;;25.27;10.88;;;;;;;0.33;100.00;99672.53;5158424;27;20042;-87
2021/11/07 05:36:33;;;;;;;26.58;10.73;;;;;;;-0.02;100.00;99650.88;5135903;27;20146;-87
2021/11/07 05:39:02;;;;;;;20.73;10.40;;;;;;;-0.05;100.00;99656.44;5136835;27;20101;-87
2021/11/07 05:41:29;;;;;;;22.80;10.67;;;;;;;-0.15;100.00;99629.50;5137451;27;20055;-87
2021/11/07 05:43:55;;;;;;;22.15;10.23;;;;;;;-0.14;100.00;99622.34;5137180;27;20043;-87
2021/11/07 05:46:22;;;;;;;21.13;10.30;;;;;;;-0.09;100.00;99628.22;5137300;27;20054;-87
2021/11/07 05:48:50;;;;;;;24.23;10.90;;;;;;;-0.04;100.00;99628.75;5137016;27;20050;-87
2021/11/07 05:51:17;;;;;;;25.50;11.68;;;;;;;0.00;100.00;99598.19;5136915;27;20047;-88
2021/11/07 05:53:44;;;;;;;19.17;9.73;;;;;;;0.16;100.00;99612.16;5147458;27;20406;-87
2021/11/07 05:56:13;;;;;;;25.27;11.43;;;;;;;0.21;100.00;99621.69;5158708;27;20046;-87
2021/11/07 05:58:40;;;;;;;23.10;11.13;;;;;;;0.07;100.00;99630.69;5158053;27;20441;-87
2021/11/07 06:01:07;;;;;;;20.77;10.75;;;;;;;0.04;100.00;99623.72;5157584;27;20050;-87
2021/11/07 06:03:34;;;;;;;20.55;10.63;;;;;;;-0.03;100.00;99609.94;5157334;27;20050;-87
2021/11/07 06:06:01;;;;;;;20.08;9.93;;;;;;;-0.03;100.00;99620.63;5157533;27;20039;-87
2021/11/07 06:08:30;;;;;;;22.23;11.02;;;;;;;-0.04;100.00;99605.56;5157103;27;20070;-87
2021/11/07 06:11:00;;;;;;;21.58;9.90;;;;;;;-0.02;100.00;99616.13;5157279;27;20056;-87
2021/11/07 06:13:30;;;;;;;21.33;11.13;;;;;;;0.01;100.00;99609.72;5156264;27;20268;-86
2021/11/07 06:15:58;;;;;;;23.98;11.95;;;;;;;-0.01;100.00;99610.69;5157326;27;20485;-87
2021/11/07 06:18:25;;;;;;;22.63;10.63;;;;;;;0.09;100.00;99602.91;5157308;27;20054;-86
2021/11/07 06:20:52;;;;;;;20.77;10.55;;;;;;;0.17;100.00;99589.81;5157235;27;20134;-87
2021/11/07 06:23:21;;;;;;;29.15;11.80;;;;;;;0.19;100.00;99589.72;5157120;27;20050;-87
2021/11/07 06:25:48;;;;;;;23.40;11.00;;;;;;;0.19;100.00;99580.84;5157024;27;20129;-87
2021/11/07 06:28:17;;;;;;;20.42;10.93;;;;;;;0.24;100.00;99608.09;5156881;27;20050;-87
2021/11/07 06:31:04;;;;;;;24.88;11.50;;;;;;;0.26;100.00;99582.97;5157131;27;20497;-87
2021/11/07 06:33:31;;;;;;;21.50;10.50;;;;;;;0.22;100.00;99577.97;5156532;27;20062;-87
2021/11/07 06:35:59;;;;;;;21.83;11.70;;;;;;;0.22;100.00;99580.63;5156590;27;20050;-87
2021/11/07 06:38:28;;;;;;;24.63;11.23;;;;;;;0.17;100.00;99584.47;5156821;27;20043;-87
2021/11/07 06:40:55;;;;;;;23.13;11.23;;;;;;;0.38;100.00;99588.41;5150508;27;20038;-87
2021/11/07 06:43:22;;;;;;;23.67;12.02;;;;;;;0.30;100.00;99595.19;5154943;27;20051;-87
2021/11/07 06:45:52;;;;;;;26.05;11.18;;;;;;;0.51;100.00;99587.44;5156645;27;20073;-87
2021/11/07 06:48:21;;;;;;;25.77;10.75;;;;;;;0.41;100.00;99594.41;5156575;27;20054;-87
2021/11/07 06:50:48;;;;;;;21.08;11.05;;;;;;;0.32;100.00;99585.22;5156820;27;20055;-87
2021/11/07 06:53:17;;;;;;;22.50;10.77;;;;;;;0.47;100.00;99610.00;5156102;27;20055;-87
2021/11/07 06:55:47;;;;;;;31.70;12.10;;;;;;;0.57;100.00;99595.97;5156505;27;20478;-88
2021/11/07 06:58:17;;;;;;;25.83;10.65;;;;;;;0.62;100.00;99594.69;5150271;27;20534;-87
2021/11/07 07:00:46;;;;;;;21.65;10.82;;;;;;;0.76;100.00;99582.13;5154942;27;20145;-88
2021/11/07 07:03:13;;;;;;;23.10;11.45;;;;;;;0.74;100.00;99573.34;5155682;27;20064;-87
2021/11/07 07:05:43;;;;;;;18.92;10.52;;;;;;;0.85;100.00;99563.56;5155304;27;20054;-87
2021/11/07 07:08:15;;;;;;;22.58;10.65;;;;;;;0.98;100.00;99546.56;5154768;27;20095;-87
2021/11/07 07:10:51;;;;;;;23.80;11.43;;;;;;;1.12;100.00;99577.69;5130281;27;20049;-87
2021/11/07 07:13:44;;;;;;;22.42;10.70;;;;;;;1.12;100.00;99546.41;5153436;27;20077;-87
2021/11/07 07:16:21;;;;;;;22.52;11.20;;;;;;;1.31;100.00;99574.47;5141359;27;20047;-88
2021/11/07 07:19:02;;;;;;;19.17;9.98;;;;;;;1.48;100.00;99573.22;5156202;27;20064;-88
2021/11/07 07:21:40;;;;;;;20.33;10.55;;;;;;;1.55;100.00;99569.94;5155513;27;20042;-88
2021/11/07 07:24:34;;;;;;;22.38;10.85;;;;;;;1.63;100.00;99571.19;5154859;27;20071;-88
2021/11/07 07:27:21;;;;;;;21.15;11.50;;;;;;;1.76;100.00;99575.50;5155976;27;20043;-88
2021/11/07 07:30:01;;;;;;;18.15;10.30;;;;;;;1.80;100.00;99570.72;5156126;27;20111;-89
2021/11/07 07:32:51;;;;;;;16.45;9.52;;;;;;;1.83;100.00;99541.00;5155042;27;20585;-88
2021/11/07 07:35:25;;;;;;;15.93;8.82;;;;;;;2.10;100.00;99567.47;5154009;27;20051;-89
2021/11/07 07:37:54;;;;;;;24.95;10.60;;;;;;;2.23;100.00;99583.47;5156257;27;20129;-88
2021/11/07 07:40:22;;;;;;;20.17;10.07;;;;;;;2.30;100.00;99568.59;5155744;27;20370;-89
2021/11/07 07:42:49;;;;;;;24.63;11.18;;;;;;;2.29;100.00;99582.13;5154968;27;20047;-89
2021/11/07 07:45:16;;;;;;;26.55;11.48;;;;;;;2.43;100.00;99581.03;5155485;27;20043;-89
2021/11/07 07:47:44;;;;;;;19.48;10.90;;;;;;;2.41;100.00;99543.59;5156052;27;20049;-89
2021/11/07 07:50:15;;;;;;;23.17;11.77;;;;;;;2.52;100.00;99547.25;5155498;27;20069;-89
2021/11/07 07:52:47;;;;;;;21.73;10.13;;;;;;;2.66;100.00;99557.69;5154813;27;20129;-88
2021/11/07 07:55:25;;;;;;;22.65;11.75;;;;;;;2.74;100.00;99549.00;5155663;27;20043;-88
2021/11/07 07:57:52;;;;;;;18.70;9.57;;;;;;;2.69;100.00;99535.13;5155820;27;20116;-88
2021/11/07 08:00:23;;;;;;;22.83;11.70;;;;;;;2.92;100.00;99546.66;5154944;27;20050;-89
2021/11/07 08:02:50;;;;;;;20.67;10.63;;;;;;;2.96;100.00;99529.31;5155475;27;20077;-89
2021/11/07 08:05:18;;;;;;;19.23;9.90;;;;;;;2.79;100.00;99510.06;5154973;27;20053;-89
2021/11/07 08:07:45;;;;;;;18.48;10.27;;;;;;;2.79;100.00;99501.16;5154895;27;20142;-89
2021/11/07 08:10:16;;;;;;;19.15;11.23;;;;;;;2.98;100.00;99511.22;5154941;27;20050;-89
2021/11/07 08:12:47;;;;;;;21.33;11.40;;;;;;;3.06;100.00;99491.81;5154865;27;20061;-89
2021/11/07 08:15:15;;;;;;;21.38;10.98;;;;;;;3.20;100.00;99502.22;5155372;27;20057;-89
2021/11/07 08:17:45;;;;;;;18.27;10.43;;;;;;;3.34;100.00;99504.59;5154089;27;20080;-88
2021/11/07 08:20:16;;;;;;;21.80;10.48;;;;;;;3.48;100.00;99508.78;5154972;27;20054;-89
2021/11/07 08:22:45;;;;;;;;;;;;;;;3.71;100.00;99504.13;5154498;27;20047;-88
2021/11/07 08:25:20;;;;;;;15.68;9.02;;;;;;;3.67;100.00;99483.88;5153978;27;19998;-90
2021/11/07 08:27:51;;;;;;;18.60;9.65;;;;;;;3.83;100.00;99504.91;5155214;27;20443;-87
2021/11/07 08:30:21;;;;;;;19.13;10.30;;;;;;;3.96;100.00;99506.50;5155326;27;20043;-88
2021/11/07 08:32:51;;;;;;;19.33;9.38;;;;;;;3.99;100.00;99507.13;5154273;27;20387;-88
2021/11/07 08:35:18;;;;;;;15.13;8.80;;;;;;;3.96;100.00;99493.94;5156256;27;20051;-88
2021/11/07 08:37:52;;;;;;;16.00;8.38;;;;;;;3.87;100.00;99503.66;5160307;27;20042;-88
2021/11/07 08:40:27;;;;;;;17.10;10.10;;;;;;;3.90;100.00;99511.44;5161099;27;20050;-88
2021/11/07 08:43:03;;;;;;;18.67;8.90;;;;;;;3.94;100.00;99500.44;5159012;27;20043;-89
2021/11/07 09:05:11;;;;;;;17.90;9.63;;;;;;;4.46;100.00;99446.47;5158205;27;20052;-88
2021/11/07 09:07:52;;;;;;;17.70;10.50;;;;;;;4.59;100.00;99436.31;5158221;27;20054;-88
2021/11/07 09:10:21;;;;;;;14.52;7.60;;;;;;;4.61;100.00;99428.94;5157337;27;20042;-88
2021/11/07 09:12:49;;;;;;;15.63;8.43;;;;;;;4.75;100.00;99436.59;5156667;27;20141;-88
2021/11/07 09:15:26;;;;;;;14.65;8.25;;;;;;;4.91;100.00;99444.13;5156805;27;20050;-92
2021/11/07 09:17:55;;;;;;;14.10;7.82;;;;;;;4.90;100.00;99433.50;5137163;27;20051;-90
2021/11/07 09:20:29;;;;;;;13.05;8.48;;;;;;;5.07;100.00;99424.72;5135345;27;20047;-88
2021/11/07 09:22:59;;;;;;;15.20;8.45;;;;;;;5.19;100.00;99433.47;5155653;27;20051;-88
2021/11/07 09:25:28;;;;;;;12.88;7.90;;;;;;;5.37;100.00;99433.59;5156219;27;20083;-88
2021/11/07 09:27:58;;;;;;;12.02;7.43;;;;;;;5.39;100.00;99450.47;5156896;27;20409;-88
2021/11/07 09:30:29;;;;;;;;;;;;;;;5.39;100.00;99453.19;5157639;27;20050;-88
2021/11/07 09:33:09;;;;;;;12.48;7.93;;;;;;;5.22;100.00;99453.91;5155918;27;19919;-88
2021/11/07 09:38:23;;;;;;;11.18;6.32;;;;;;;5.37;100.00;99435.44;5148580;27;20059;-87
2021/11/07 09:41:07;;;;;;;13.65;7.80;;;;;;;5.64;100.00;99440.88;5157028;27;20053;-87
2021/11/07 09:43:46;;;;;;;14.20;8.27;;;;;;;5.54;100.00;99421.22;5154823;27;20075;-88
2021/11/07 09:46:27;;;;;;;15.73;8.00;;;;;;;5.80;100.00;99434.88;5138455;27;20051;-88
2021/11/07 09:48:57;;;;;;;13.60;7.65;;;;;;;5.77;100.00;99424.41;5147510;27;20047;-88
2021/11/07 09:51:32;;;;;;;12.85;7.65;;;;;;;5.77;100.00;99434.34;5156423;27;20509;-87
2021/11/07 09:53:59;;;;;;;11.65;6.57;;;;;;;5.86;100.00;99430.75;5156056;27;20130;-88
2021/11/07 09:56:27;;;;;;;13.95;6.97;;;;;;;6.01;100.00;99433.84;5156647;27;20054;-88
2021/11/07 09:58:57;;;;;;;12.73;6.88;;;;;;;5.93;100.00;99425.59;5155314;27;20047;-88
2021/11/07 10:01:27;;;;;;;9.90;6.20;;;;;;;5.99;100.00;99447.50;5155037;27;20413;-88
2021/11/07 10:03:55;;;;;;;13.10;6.10;;;;;;;5.83;100.00;99442.69;5141065;27;20047;-88
2021/11/07 10:06:34;;;;;;;12.07;6.03;;;;;;;5.96;100.00;99439.66;5150813;27;20053;-87
2021/11/07 10:09:02;;;;;;;9.70;5.40;;;;;;;5.88;100.00;99438.69;5154225;27;20051;-87
2021/11/07 10:11:41;;;;;;;13.90;5.95;;;;;;;6.00;100.00;99414.09;5155872;27;20130;-87
2021/11/07 10:14:18;;;;;;;14.65;7.10;;;;;;;6.14;100.00;99404.66;5153161;27;20114;-87
2021/11/07 10:19:35;;;;;;;8.80;5.80;;;;;;;6.38;99.93;99384.31;5156279;27;20047;-88
2021/11/07 10:22:20;;;;;;;11.60;5.18;;;;;;;6.42;97.46;99376.78;5156298;27;20053;-87
2021/11/07 10:24:55;;;;;;;9.20;5.57;;;;;;;6.64;98.05;99370.94;5156187;27;20054;-87
2021/11/07 10:27:24;;;;;;;9.85;6.10;;;;;;;6.68;95.24;99385.81;5155325;27;20115;-87
2021/11/07 10:29:55;;;;;;;9.10;6.03;;;;;;;6.77;96.68;99380.50;5155230;27;20062;-87
2021/11/07 10:39:19;;;;;;;10.73;5.72;;;;;;;7.25;93.80;99371.91;5139295;27;20094;-87
2021/11/07 10:47:36;;;;;;;7.80;4.38;;;;;;;7.57;91.22;99367.72;5152554;27;20166;-87
2021/11/07 10:53:00;;;;;;;7.65;3.88;;;;;;;7.72;85.40;99362.56;5132892;27;20095;-87
2021/11/07 10:55:29;;;;;;;9.07;4.40;;;;;;;7.82;90.88;99338.06;5136211;27;20082;-87
2021/11/07 10:57:59;;;;;;;6.97;3.45;;;;;;;7.90;86.30;99340.81;5153414;27;20047;-87
2021/11/07 11:00:29;;;;;;;7.00;3.67;;;;;;;7.95;86.48;99340.34;5153664;27;20075;-87
2021/11/07 11:02:58;;;;;;;8.07;4.28;;;;;;;8.20;86.79;99338.53;5154121;27;20039;-87
2021/11/07 11:05:37;;;;;;;7.53;3.75;;;;;;;8.29;84.01;99328.56;5141957;27;20043;-88
2021/11/07 11:08:10;;;;;;;6.97;3.38;;;;;;;8.55;86.55;99327.63;5146517;27;20043;-87
2021/11/07 11:10:56;;;;;;;6.22;3.65;;;;;;;8.56;82.11;99327.44;5133609;27;20046;-87
2021/11/07 11:22:10;;;;;;;4.72;2.90;;;;;;;8.49;81.19;99332.69;5160920;27;19937;-87
2021/11/07 11:30:18;;;;;;;6.47;3.30;;;;;;;8.41;83.67;99313.69;5155055;27;20486;-87
2021/11/07 11:32:50;;;;;;;7.20;2.67;;;;;;;8.45;86.05;99330.50;5153989;27;20073;-87
2021/11/07 11:35:31;;;;;;;4.50;2.63;;;;;;;8.34;84.68;99301.84;5154284;27;20047;-86
2021/11/07 11:38:07;;;;;;;4.03;2.88;;;;;;;8.43;85.43;99287.28;5154135;27;20043;-87
2021/11/07 11:40:58;;;;;;;6.80;3.03;;;;;;;8.61;84.14;99313.38;5148074;27;20054;-88
2021/11/07 11:43:32;;;;;;;5.75;3.00;;;;;;;8.49;85.20;99283.06;5154186;27;20100;-87
2021/11/07 11:46:18;;;;;;;4.68;2.97;;;;;;;8.55;85.77;99279.72;5154921;27;20047;-87
2021/11/07 11:51:52;;;;;;;3.90;2.75;;;;;;;8.66;86.02;99298.31;5153261;27;20065;-87
2021/11/07 12:03:32;;;;;;;4.57;2.95;;;;;;;8.58;88.08;99278.50;5063879;28;20091;-87
2021/11/07 12:06:04;;;;;;;5.45;3.17;;;;;;;8.53;88.94;99275.47;5135545;27;20051;-87
2021/11/07 12:08:38;;;;;;;6.57;2.50;;;;;;;8.51;89.57;99283.75;5133155;27;20136;-87
2021/11/07 12:11:19;;;;;;;4.60;2.85;;;;;;;8.53;88.39;99287.13;5142635;27;20038;-87
2021/11/07 12:13:50;;;;;;;6.38;2.92;;;;;;;8.63;89.14;99289.69;5157821;27;20051;-86
2021/11/07 12:16:41;;;;;;;2.03;1.35;;;;;;;8.72;92.65;99290.56;5158215;27;20054;-86
2021/11/07 12:19:13;;;;;;;1.20;0.85;;;;;;;8.74;91.75;99275.78;5158827;27;20063;-87
2021/11/07 12:22:06;;;;;;;1.17;0.70;;;;;;;8.72;92.80;99266.16;5157431;27;20074;-86
2021/11/07 12:25:10;;;;;;;1.02;0.65;;;;;;;8.66;93.25;99264.97;5157705;27;20051;-86
2021/11/07 12:27:48;;;;;;;1.55;0.85;;;;;;;8.67;92.81;99272.06;5092937;28;20052;-85
2021/11/07 12:30:36;;;;;;;2.63;1.40;;;;;;;8.65;93.73;99271.41;5093270;28;20151;-84
2021/11/07 12:33:11;;;;;;;2.50;0.80;;;;;;;8.57;94.39;99272.25;5134373;27;20070;-85
2021/11/07 12:35:42;;;;;;;2.15;1.20;;;;;;;8.50;94.84;99261.22;5157516;27;20051;-86
2021/11/07 12:41:20;;;;;;;1.75;0.70;;;;;;;8.55;96.31;99278.84;5136764;27;20054;-85
2021/11/07 12:43:50;;;;;;;0.93;0.80;;;;;;;8.53;96.30;99281.72;5138033;27;20074;-85
2021/11/07 12:46:43;;;;;;;0.95;0.88;;;;;;;8.44;99.11;99267.31;5157163;27;20477;-84
2021/11/07 12:49:22;;;;;;;1.25;1.02;;;;;;;8.45;99.35;99268.19;5157645;27;20057;-85
2021/11/07 12:51:52;;;;;;;1.65;1.08;;;;;;;8.42;98.79;99265.78;5156384;27;20056;-86
2021/11/07 12:54:22;;;;;;;1.13;0.80;;;;;;;8.50;98.92;99265.81;5156956;27;20446;-86
2021/11/07 12:56:54;;;;;;;;;;;;;;;8.58;99.61;99270.38;5153578;27;20057;-85
2021/11/07 12:59:28;;;;;;;2.67;0.75;;;;;;;8.62;99.64;99279.88;5157758;27;19919;-86
2021/11/07 13:02:06;;;;;;;2.17;0.70;;;;;;;8.52;100.00;99261.09;5154944;27;20039;-85
2021/11/07 13:04:40;;;;;;;2.75;0.90;;;;;;;8.44;100.00;99264.59;5156204;27;20498;-86